Time;durP1;ratioP1;P1;durP2;ratioP2;P2;SDS_P1;SDS_P2;PMS_P1;PMS_P2;Temp;Humidity;BMP_temperature;BMP_pressure;BME280_temperature;BME280_humidity;BME280_pressure;Samples;Min_cycle;Max_cycle;Signal;HPM_P1;HPM_P2
2021/08/28 00:01:27;;;;;;;26.87;21.33;;;;;;;13.24;81.14;101064.14;1729066;82;20961;-94
2021/08/28 00:03:54;;;;;;;29.67;22.55;;;;;;;13.23;81.21;101060.63;1729418;83;21174;-94
2021/08/28 00:06:24;;;;;;;27.90;21.87;;;;;;;13.22;81.22;101057.50;1708606;83;20977;-94
2021/08/28 00:08:49;;;;;;;27.22;20.50;;;;;;;13.21;81.25;101061.43;1732435;82;21011;-94
2021/08/28 00:11:19;;;;;;;25.48;21.45;;;;;;;13.18;81.30;101054.34;1729062;83;20968;-95
2021/08/28 00:13:50;;;;;;;24.52;20.70;;;;;;;13.17;81.33;101052.55;1707990;83;21067;-93
2021/08/28 00:16:18;;;;;;;26.60;21.17;;;;;;;13.16;81.33;101049.46;1728163;82;22456;-93
2021/08/28 00:18:45;;;;;;;24.35;20.10;;;;;;;13.15;81.32;101049.43;1731457;82;20993;-89
2021/08/28 00:21:12;;;;;;;23.42;19.30;;;;;;;13.13;81.35;101046.75;1729291;83;21485;-94
2021/08/28 00:23:41;;;;;;;23.45;20.15;;;;;;;13.10;81.37;101037.87;1708172;83;20980;-94
2021/08/28 00:26:11;;;;;;;27.75;21.33;;;;;;;13.09;81.40;101038.75;1729208;83;21059;-93
2021/08/28 00:28:38;;;;;;;25.40;21.33;;;;;;;13.06;81.40;101044.84;1708181;83;20984;-94
2021/08/28 00:31:09;;;;;;;24.10;20.17;;;;;;;13.02;81.45;101035.95;1728760;83;20987;-92
2021/08/28 00:33:36;;;;;;;29.00;21.15;;;;;;;13.00;81.56;101045.61;1707815;83;21047;-93
2021/08/28 00:36:07;;;;;;;25.72;20.50;;;;;;;12.97;81.62;101049.53;1728966;83;20983;-93
2021/08/28 00:38:32;;;;;;;25.00;21.42;;;;;;;12.95;81.70;101045.98;1728598;82;20972;-93
2021/08/28 00:40:59;;;;;;;27.30;21.55;;;;;;;12.93;81.77;101045.47;1728820;83;21834;-93
2021/08/28 00:43:27;;;;;;;26.87;21.25;;;;;;;12.93;81.92;101053.39;1728706;83;20985;-93
2021/08/28 00:45:56;;;;;;;24.65;21.25;;;;;;;12.93;82.04;101049.42;1728740;82;20964;-93
2021/08/28 00:48:23;;;;;;;28.65;22.62;;;;;;;12.93;82.10;101046.38;1729076;83;21399;-94
2021/08/28 00:50:50;;;;;;;26.15;21.42;;;;;;;12.96;82.14;101049.50;1729337;83;21446;-93
2021/08/28 00:53:20;;;;;;;28.92;21.65;;;;;;;12.98;82.19;101047.34;1729226;83;21779;-93
2021/08/28 00:55:49;;;;;;;24.60;19.77;;;;;;;12.99;82.11;101042.97;1708155;83;20993;-95
2021/08/28 00:58:21;;;;;;;26.12;21.17;;;;;;;12.96;82.00;101050.82;1728855;82;20979;-95
2021/08/28 01:00:48;;;;;;;26.57;20.68;;;;;;;12.93;81.98;101053.39;1728165;82;20985;-94
2021/08/28 01:03:18;;;;;;;25.82;20.27;;;;;;;12.89;81.99;101050.23;1729226;83;20971;-94
2021/08/28 01:06:04;;;;;;;24.95;21.37;;;;;;;12.84;82.03;101046.19;1729060;83;21746;-94
2021/08/28 01:08:41;;;;;;;25.70;19.02;;;;;;;12.81;82.06;101056.24;1707562;83;20956;-93
2021/08/28 01:11:23;;;;;;;24.45;20.35;;;;;;;12.77;82.10;101053.52;1727270;82;21453;-92
2021/08/28 01:13:57;;;;;;;25.85;21.33;;;;;;;12.74;82.17;101056.09;1729276;82;21505;-94
2021/08/28 01:16:25;;;;;;;22.37;19.50;;;;;;;12.73;82.24;101050.36;1731450;82;21007;-94
2021/08/28 01:18:55;;;;;;;24.23;19.42;;;;;;;12.69;82.26;101053.36;1728726;83;20975;-93
2021/08/28 01:21:40;;;;;;;24.45;19.30;;;;;;;12.66;82.28;101052.41;1728689;82;21477;-94
2021/08/28 01:24:07;;;;;;;24.03;19.93;;;;;;;12.62;82.35;101054.97;1728706;82;20983;-94
2021/08/28 01:26:53;;;;;;;24.23;20.05;;;;;;;12.59;82.21;101052.69;1728982;82;21530;-94
2021/08/28 01:29:23;;;;;;;24.12;20.05;;;;;;;12.56;82.42;101055.28;1728820;82;20997;-94
2021/08/28 01:31:57;;;;;;;25.60;19.82;;;;;;;12.52;82.50;101055.64;1729148;83;21731;-94
2021/08/28 01:34:25;;;;;;;22.22;18.92;;;;;;;12.49;82.58;101053.36;1728777;82;20968;-94
2021/08/28 01:36:52;;;;;;;23.60;19.48;;;;;;;12.48;82.66;101056.84;1729563;83;20977;-94
2021/08/28 01:39:18;;;;;;;20.92;18.50;;;;;;;12.45;82.74;101053.28;1708464;83;21034;-93
2021/08/28 01:41:59;;;;;;;24.60;19.07;;;;;;;12.43;82.77;101055.00;1728754;83;20997;-91
2021/08/28 01:44:26;;;;;;;22.10;18.20;;;;;;;12.42;82.82;101060.23;1707892;83;21059;-93
2021/08/28 01:46:57;;;;;;;21.37;18.37;;;;;;;12.40;82.88;101060.64;1728117;82;21007;-93
2021/08/28 01:49:23;;;;;;;19.73;16.77;;;;;;;12.39;82.96;101062.39;1728731;83;21032;-93
2021/08/28 01:51:55;;;;;;;23.15;17.30;;;;;;;12.38;83.03;101063.67;1727959;82;20964;-93
2021/08/28 01:54:21;;;;;;;18.20;15.85;;;;;;;12.38;83.10;101067.63;1728459;82;20968;-93
2021/08/28 01:56:48;;;;;;;18.57;16.57;;;;;;;12.37;83.24;101060.16;1728907;83;21749;-93
2021/08/28 01:59:15;;;;;;;19.90;17.48;;;;;;;12.38;83.30;101058.39;1729152;83;21019;-94
2021/08/28 02:01:43;;;;;;;20.43;16.40;;;;;;;12.37;83.29;101058.83;1728402;82;20957;-94
2021/08/28 02:04:10;;;;;;;19.92;16.20;;;;;;;12.35;83.29;101046.03;1729162;83;21121;-93
2021/08/28 02:06:51;;;;;;;19.55;16.90;;;;;;;12.35;83.34;101043.80;1728681;83;21015;-92
2021/08/28 02:09:31;;;;;;;18.30;15.75;;;;;;;12.32;83.29;101045.95;1707470;83;21026;-92
2021/08/28 02:12:11;;;;;;;21.82;17.05;;;;;;;12.32;83.36;101045.06;1707344;83;21435;-92
2021/08/28 02:14:49;;;;;;;19.00;17.00;;;;;;;12.29;83.36;101040.59;1728859;83;21477;-92
2021/08/28 02:17:16;;;;;;;20.02;17.23;;;;;;;12.29;83.42;101038.39;1728763;83;21506;-93
2021/08/28 02:19:46;;;;;;;19.98;15.72;;;;;;;12.28;83.51;101040.58;1728843;83;20965;-94
2021/08/28 02:22:18;;;;;;;20.65;16.45;;;;;;;12.27;83.63;101046.27;1728558;83;21238;-94
2021/08/28 02:24:47;;;;;;;19.23;16.65;;;;;;;12.27;83.72;101039.66;1731751;82;20976;-93
2021/08/28 02:27:25;;;;;;;20.12;16.55;;;;;;;12.29;83.71;101047.63;1728805;83;21426;-94
2021/08/28 02:30:00;;;;;;;22.32;16.65;;;;;;;12.27;83.69;101044.06;1728291;83;20965;-94
2021/08/28 02:32:26;;;;;;;23.02;17.42;;;;;;;12.23;83.68;101040.02;1729038;83;21063;-95
2021/08/28 02:34:53;;;;;;;21.15;17.07;;;;;;;12.21;83.68;101047.02;1729029;83;21809;-93
2021/08/28 02:37:20;;;;;;;22.20;16.55;;;;;;;12.19;83.66;101050.48;1728850;83;21513;-93
2021/08/28 02:39:47;;;;;;;21.45;17.37;;;;;;;12.17;83.74;101041.20;1728756;83;20980;-95
2021/08/28 02:42:18;;;;;;;20.80;16.93;;;;;;;12.15;83.74;101046.00;1728628;82;20965;-94
2021/08/28 02:44:48;;;;;;;20.02;16.85;;;;;;;12.14;83.74;101040.24;1707455;83;21510;-94
2021/08/28 02:47:15;;;;;;;22.70;17.57;;;;;;;12.12;83.74;101044.16;1729139;83;22365;-94
2021/08/28 02:49:42;;;;;;;19.60;17.07;;;;;;;12.13;83.79;101047.28;1708526;83;21004;-93
2021/08/28 02:52:09;;;;;;;19.52;16.27;;;;;;;12.11;83.83;101035.80;1728758;83;21008;-93
2021/08/28 02:54:39;;;;;;;22.70;17.55;;;;;;;12.10;83.91;101031.36;1728858;83;20976;-92
2021/08/28 02:57:06;;;;;;;18.40;16.05;;;;;;;12.10;83.93;101030.04;1729143;83;21047;-93
2021/08/28 02:59:35;;;;;;;20.20;17.23;;;;;;;12.10;84.01;101030.04;1728476;82;20948;-95
2021/08/28 03:02:07;;;;;;;23.73;16.05;;;;;;;12.11;84.02;101033.59;1728396;82;20956;-94
2021/08/28 03:04:34;;;;;;;19.55;15.85;;;;;;;12.10;83.98;101031.36;1729079;82;21004;-93
2021/08/28 03:07:06;;;;;;;20.68;17.07;;;;;;;12.09;84.02;101037.91;1728669;82;21467;-93
2021/08/28 03:09:35;;;;;;;21.60;16.87;;;;;;;12.09;84.00;101036.59;1728871;82;20972;-93
2021/08/28 03:12:04;;;;;;;19.15;16.65;;;;;;;12.09;84.04;101041.47;1707352;82;21469;-94
2021/08/28 03:14:34;;;;;;;19.00;16.90;;;;;;;12.08;84.04;101037.47;1705845;82;21060;-92
2021/08/28 03:17:00;;;;;;;19.30;16.55;;;;;;;12.07;84.07;101039.23;1728944;83;21000;-91
2021/08/28 03:19:30;;;;;;;17.80;15.90;;;;;;;12.08;84.09;101041.43;1729267;83;21518;-93
2021/08/28 03:21:57;;;;;;;19.37;16.97;;;;;;;12.06;84.05;101038.75;1729203;83;21008;-93
2021/08/28 03:24:26;;;;;;;19.30;16.17;;;;;;;12.05;84.07;101039.63;1728763;83;21811;-93
2021/08/28 03:26:53;;;;;;;20.05;17.23;;;;;;;12.05;84.08;101042.27;1728894;83;20992;-93
2021/08/28 03:29:23;;;;;;;21.50;16.97;;;;;;;12.03;84.18;101043.54;1728934;83;20991;-92
2021/08/28 03:31:52;;;;;;;20.25;16.60;;;;;;;12.04;84.18;101049.26;1728973;83;21004;-94
2021/08/28 03:34:23;;;;;;;19.90;16.27;;;;;;;12.06;84.23;101047.98;1708151;83;21016;-95
2021/08/28 03:36:52;;;;;;;18.00;16.12;;;;;;;12.07;84.28;101044.50;1728975;82;21730;-94
2021/08/28 03:39:17;;;;;;;17.48;15.63;;;;;;;12.08;84.25;101046.27;1728840;82;20971;-94
2021/08/28 03:41:44;;;;;;;22.20;16.80;;;;;;;12.08;84.23;101046.27;1729264;82;21011;-94
2021/08/28 03:44:19;;;;;;;21.15;17.48;;;;;;;12.09;84.23;101043.19;1729382;83;20948;-93
2021/08/28 03:46:49;;;;;;;19.57;16.40;;;;;;;12.08;84.25;101042.31;1732476;82;21016;-93
2021/08/28 03:49:22;;;;;;;20.85;17.25;;;;;;;12.10;84.29;101040.59;1729318;82;21751;-94
2021/08/28 03:51:47;;;;;;;18.82;16.82;;;;;;;12.12;84.35;101039.31;1728588;82;21020;-94
2021/08/28 03:54:16;;;;;;;19.52;17.35;;;;;;;12.14;84.35;101038.92;1708398;83;21387;-94
2021/08/28 03:56:44;;;;;;;19.30;16.40;;;;;;;12.16;84.41;101041.17;1729357;83;21469;-93
2021/08/28 03:59:11;;;;;;;19.42;17.42;;;;;;;12.18;84.44;101035.49;1729163;83;20976;-93
2021/08/28 04:01:38;;;;;;;18.82;15.45;;;;;;;12.22;84.47;101036.05;1729262;83;21738;-93
2021/08/28 04:04:05;;;;;;;21.27;17.17;;;;;;;12.25;84.50;101030.83;1729288;83;20952;-94
2021/08/28 04:06:32;;;;;;;23.15;16.97;;;;;;;12.29;84.49;101026.07;1729383;83;20944;-93
2021/08/28 04:09:01;;;;;;;19.17;17.10;;;;;;;12.34;84.50;101027.08;1729141;83;20964;-91
2021/08/28 04:11:27;;;;;;;19.92;16.85;;;;;;;12.39;84.53;101028.08;1728992;83;21071;-90
2021/08/28 04:13:54;;;;;;;20.68;16.65;;;;;;;12.45;84.49;101032.59;1732838;82;21812;-89
2021/08/28 04:16:23;;;;;;;22.73;16.25;;;;;;;12.50;84.47;101028.31;1707882;83;20961;-91
2021/08/28 04:18:54;;;;;;;17.15;15.32;;;;;;;12.58;84.46;101022.75;1707745;83;21416;-89
2021/08/28 04:21:20;;;;;;;21.12;16.95;;;;;;;12.66;84.36;101025.99;1729144;83;20997;-89
2021/08/28 04:23:47;;;;;;;17.57;15.68;;;;;;;12.73;84.29;101039.80;1729381;82;21044;-90
2021/08/28 04:26:17;;;;;;;18.17;16.27;;;;;;;12.77;84.13;101040.31;1729032;83;21802;-90
2021/08/28 04:28:42;;;;;;;19.62;15.60;;;;;;;12.81;84.04;101047.44;1728612;82;20956;-89
2021/08/28 04:31:11;;;;;;;18.35;15.25;;;;;;;12.85;83.97;101049.27;1728352;82;21384;-85
2021/08/28 04:33:38;;;;;;;15.98;14.33;;;;;;;12.90;83.93;101046.30;1728118;83;21011;-84
2021/08/28 04:36:12;;;;;;;17.77;14.20;;;;;;;12.97;83.84;101038.97;1728135;83;21450;-85
2021/08/28 04:38:40;;;;;;;20.48;17.35;;;;;;;13.05;83.78;101043.52;1705950;82;22359;-85
2021/08/28 04:41:09;;;;;;;15.93;14.25;;;;;;;13.11;83.63;101040.98;1728067;83;21035;-85
2021/08/28 04:43:37;;;;;;;17.05;14.38;;;;;;;13.16;83.58;101040.21;1707179;83;20991;-81
2021/08/28 04:46:04;;;;;;;16.07;14.33;;;;;;;13.20;83.47;101042.05;1728358;81;20988;-84
2021/08/28 04:48:35;;;;;;;18.00;15.48;;;;;;;13.26;83.33;101046.55;1728218;83;21027;-84
2021/08/28 04:50:59;;;;;;;16.65;14.95;;;;;;;13.30;83.25;101051.06;1726936;82;21753;-84
2021/08/28 04:53:29;;;;;;;15.72;14.13;;;;;;;13.35;83.12;101053.38;1727992;83;20981;-80
2021/08/28 04:55:55;;;;;;;16.17;14.47;;;;;;;13.40;83.05;101052.12;1727320;82;21517;-80
2021/08/28 04:58:26;;;;;;;17.27;15.55;;;;;;;13.46;83.02;101045.64;1728100;83;20956;-85
2021/08/28 05:00:52;;;;;;;14.13;12.70;;;;;;;13.55;82.98;101050.19;1727745;82;20992;-85
2021/08/28 05:03:19;;;;;;;15.65;13.93;;;;;;;13.65;82.89;101053.47;1727592;82;21727;-84
2021/08/28 05:05:46;;;;;;;14.75;13.10;;;;;;;13.71;82.72;101046.95;1727395;83;20988;-84
2021/08/28 05:08:13;;;;;;;13.40;12.00;;;;;;;13.80;82.66;101049.75;1727599;83;20999;-84
2021/08/28 05:10:40;;;;;;;15.15;11.65;;;;;;;13.89;82.48;101052.99;1727735;83;21039;-84
2021/08/28 05:13:10;;;;;;;14.45;11.60;;;;;;;13.99;82.43;101053.58;1727693;82;21011;-84
2021/08/28 05:15:37;;;;;;;14.93;12.03;;;;;;;14.11;82.39;101047.58;1706829;83;21214;-84
2021/08/28 05:18:06;;;;;;;12.63;11.33;;;;;;;14.27;82.32;101054.45;1727682;83;21043;-84
2021/08/28 05:20:33;;;;;;;14.35;12.88;;;;;;;14.41;82.12;101051.98;1728022;83;20980;-85
2021/08/28 05:23:05;;;;;;;13.55;11.63;;;;;;;14.51;81.79;101048.17;1727773;83;21004;-85
2021/08/28 05:25:32;;;;;;;12.68;11.38;;;;;;;14.60;81.62;101048.74;1706007;83;20995;-84
2021/08/28 05:27:58;;;;;;;12.40;10.88;;;;;;;14.66;81.36;101044.88;1728011;81;22531;-84
2021/08/28 05:30:27;;;;;;;12.80;11.50;;;;;;;14.71;81.15;101047.13;1727613;82;21015;-85
2021/08/28 05:32:54;;;;;;;13.78;12.37;;;;;;;14.72;80.93;101051.57;1728106;83;20968;-85
2021/08/28 05:35:21;;;;;;;11.30;10.00;;;;;;;14.73;80.85;101052.45;1728074;83;21165;-84
2021/08/28 05:37:53;;;;;;;13.85;12.37;;;;;;;14.74;80.81;101041.88;1727723;82;21130;-84
2021/08/28 05:40:20;;;;;;;11.65;10.43;;;;;;;14.80;80.86;101045.04;1727642;82;21751;-85
2021/08/28 05:42:47;;;;;;;12.60;11.30;;;;;;;14.86;80.73;101057.03;1728213;83;21018;-85
2021/08/28 05:45:14;;;;;;;11.75;10.55;;;;;;;14.93;80.69;101058.01;1728182;83;20983;-85
2021/08/28 05:47:41;;;;;;;12.65;11.30;;;;;;;15.03;80.76;101055.91;1728079;82;21245;-85
2021/08/28 05:50:09;;;;;;;11.28;10.18;;;;;;;15.13;80.67;101051.18;1728115;83;21044;-85
2021/08/28 05:52:36;;;;;;;11.97;10.60;;;;;;;15.24;80.52;101044.67;1728166;83;21736;-84
2021/08/28 05:55:05;;;;;;;10.72;9.68;;;;;;;15.33;80.30;101046.51;1728108;83;20995;-85
2021/08/28 05:57:32;;;;;;;12.15;9.58;;;;;;;15.41;80.16;101050.15;1728173;82;20987;-84
2021/08/28 05:59:58;;;;;;;12.03;10.82;;;;;;;15.52;80.20;101041.86;1727896;83;21540;-84
2021/08/28 06:02:25;;;;;;;11.05;9.80;;;;;;;15.68;80.08;101039.33;1706343;83;21035;-84
2021/08/28 06:04:54;;;;;;;10.88;9.78;;;;;;;15.82;79.89;101038.14;1666955;83;21130;-84
2021/08/28 06:07:24;;;;;;;11.80;9.93;;;;;;;15.95;79.65;101041.34;1686666;83;20978;-85
2021/08/28 06:09:49;;;;;;;10.50;9.45;;;;;;;16.07;79.57;101040.56;1686478;83;21026;-84
2021/08/28 06:12:16;;;;;;;12.75;10.00;;;;;;;16.17;79.32;101032.22;1686840;83;21058;-84
2021/08/28 06:14:46;;;;;;;12.25;11.05;;;;;;;16.27;79.30;101038.02;1687146;83;21003;-84
2021/08/28 06:17:12;;;;;;;12.13;9.58;;;;;;;16.40;79.18;101037.66;1686323;83;22422;-86
2021/08/28 06:19:41;;;;;;;9.78;8.80;;;;;;;16.55;79.06;101042.17;1691584;83;21023;-86
2021/08/28 06:22:13;;;;;;;10.70;8.78;;;;;;;16.73;78.99;101039.60;1710326;82;21083;-86
2021/08/28 06:24:41;;;;;;;10.75;9.65;;;;;;;16.92;78.69;101041.92;1669430;84;21519;-85
2021/08/28 06:27:09;;;;;;;9.98;9.08;;;;;;;17.09;78.40;101051.28;1662980;83;21017;-84
2021/08/28 06:29:41;;;;;;;11.30;10.10;;;;;;;17.21;78.24;101050.00;1610609;87;21565;-84
2021/08/28 06:32:12;;;;;;;10.95;9.85;;;;;;;17.32;77.96;101043.35;1636841;86;21001;-85
2021/08/28 06:34:39;;;;;;;12.20;10.90;;;;;;;17.39;77.54;101049.13;1657281;85;21060;-84
2021/08/28 06:37:10;;;;;;;12.98;10.05;;;;;;;17.43;77.30;101048.70;1659553;86;21848;-84
2021/08/28 06:39:37;;;;;;;13.00;11.53;;;;;;;17.46;77.14;101044.27;1636852;86;21060;-84
2021/08/28 06:42:04;;;;;;;11.73;10.55;;;;;;;17.53;77.12;101050.92;1658315;85;21752;-84
2021/08/28 06:44:30;;;;;;;12.10;10.80;;;;;;;17.60;76.92;101046.94;1658386;86;21045;-85
2021/08/28 06:46:57;;;;;;;10.70;9.60;;;;;;;17.68;76.93;101042.53;1653992;86;21036;-84
2021/08/28 06:49:24;;;;;;;11.90;10.65;;;;;;;17.79;76.81;101039.88;1658449;86;21028;-84
2021/08/28 06:51:53;;;;;;;10.20;9.20;;;;;;;17.88;76.55;101045.20;1658319;86;21004;-85
2021/08/28 06:54:20;;;;;;;10.18;9.18;;;;;;;17.96;76.50;101042.98;1658609;86;22576;-84
2021/08/28 06:56:47;;;;;;;10.15;8.80;;;;;;;18.02;76.41;101043.00;1658426;86;21032;-85
2021/08/28 06:59:14;;;;;;;12.98;9.45;;;;;;;18.12;76.47;101036.76;1658567;86;21040;-85
2021/08/28 07:01:41;;;;;;;13.62;8.60;;;;;;;18.24;76.24;101037.17;1658436;86;21057;-85
2021/08/28 07:04:07;;;;;;;10.90;9.53;;;;;;;18.31;76.08;101033.61;1658421;86;21486;-84
2021/08/28 07:06:34;;;;;;;12.18;9.70;;;;;;;18.34;75.65;101039.37;1658452;86;22794;-85
2021/08/28 07:09:02;;;;;;;10.18;9.18;;;;;;;18.32;75.57;101035.81;1658450;86;21475;-85
2021/08/28 07:11:30;;;;;;;11.75;9.45;;;;;;;18.36;75.67;101030.95;1658445;86;21088;-85
2021/08/28 07:13:56;;;;;;;11.93;9.30;;;;;;;18.44;75.79;101030.47;1658241;86;21073;-85
2021/08/28 07:16:25;;;;;;;9.53;8.60;;;;;;;18.53;75.60;101029.11;1658300;86;21044;-84
2021/08/28 07:18:53;;;;;;;10.38;8.70;;;;;;;18.59;75.42;101030.88;1659607;85;51185;-84
2021/08/28 07:21:21;;;;;;;10.40;9.40;;;;;;;18.70;75.48;101029.50;1658233;85;21581;-85
2021/08/28 07:23:48;;;;;;;11.83;9.30;;;;;;;18.75;75.10;101031.68;1658577;84;21048;-87
2021/08/28 07:27:23;;;;;;;10.35;9.35;;;;;;;18.77;74.91;101036.14;1658736;84;21032;-88
2021/08/28 07:30:46;;;;;;;11.50;10.10;;;;;;;18.80;74.91;101038.80;1603408;89;21066;-87
2021/08/28 07:33:26;;;;;;;11.10;9.45;;;;;;;18.88;74.59;101045.44;1487140;95;21107;-85
2021/08/28 07:35:53;;;;;;;10.85;9.43;;;;;;;18.89;74.56;101045.89;1502258;95;21053;-84
2021/08/28 07:38:21;;;;;;;11.48;10.13;;;;;;;18.95;74.54;101044.97;1530027;93;21102;-90
2021/08/28 07:40:48;;;;;;;11.15;9.95;;;;;;;18.98;74.33;101036.52;1529913;93;21606;-87
2021/08/28 07:43:20;;;;;;;11.30;10.10;;;;;;;19.03;74.43;101040.47;1530500;91;21150;-87
2021/08/28 07:45:48;;;;;;;12.10;10.50;;;;;;;19.13;74.33;101035.55;1511503;93;21085;-84
2021/08/28 07:48:17;;;;;;;11.03;10.00;;;;;;;19.22;74.26;101039.95;1529861;93;21050;-83
2021/08/28 07:50:46;;;;;;;10.53;9.43;;;;;;;19.34;74.41;101037.19;1529441;92;21015;-85
2021/08/28 07:53:17;;;;;;;12.63;10.75;;;;;;;19.48;73.97;101041.08;1525519;94;21043;-85
2021/08/28 07:55:44;;;;;;;12.45;11.25;;;;;;;19.58;73.77;101040.59;1525763;92;21085;-84
2021/08/28 07:58:14;;;;;;;11.73;10.53;;;;;;;19.67;73.34;101040.52;1525675;94;21782;-84
2021/08/28 08:00:40;;;;;;;13.10;9.43;;;;;;;19.70;73.41;101040.48;1525627;92;21101;-83
2021/08/28 08:03:06;;;;;;;10.82;9.73;;;;;;;19.84;73.37;101039.51;1525828;94;21085;-85
2021/08/28 08:05:36;;;;;;;11.33;9.33;;;;;;;19.95;73.06;101038.96;1526331;92;21575;-84
2021/08/28 08:08:09;;;;;;;10.53;9.53;;;;;;;20.02;72.90;101040.69;1550035;89;21510;-85
2021/08/28 08:10:39;;;;;;;11.03;9.13;;;;;;;20.10;72.54;101048.62;1595699;87;21592;-85
2021/08/28 08:13:05;;;;;;;11.75;9.63;;;;;;;20.22;72.78;101051.65;1607571;87;21077;-85
2021/08/28 08:15:32;;;;;;;11.40;10.40;;;;;;;20.35;72.48;101061.31;1673255;85;21446;-85
2021/08/28 08:17:59;;;;;;;15.15;9.58;;;;;;;20.43;72.22;101058.55;1673207;85;21065;-85
2021/08/28 08:20:26;;;;;;;10.80;9.25;;;;;;;20.52;72.08;101056.66;1673334;84;21578;-85
2021/08/28 08:22:53;;;;;;;11.63;9.03;;;;;;;20.67;71.93;101054.75;1695335;82;22609;-86
2021/08/28 08:25:22;;;;;;;10.10;8.68;;;;;;;20.81;71.88;101049.22;1701121;82;21590;-85
2021/08/28 08:27:48;;;;;;;10.82;8.65;;;;;;;21.00;71.73;101049.87;1710698;82;21461;-85
2021/08/28 08:30:15;;;;;;;9.78;8.78;;;;;;;21.19;71.62;101051.84;1699160;84;21236;-85
2021/08/28 08:32:44;;;;;;;10.00;8.90;;;;;;;21.33;71.05;101047.18;1699047;84;21512;-86
2021/08/28 08:35:11;;;;;;;9.60;8.70;;;;;;;21.43;70.94;101056.83;1698818;84;21736;-86
2021/08/28 08:37:37;;;;;;;9.80;8.80;;;;;;;21.54;70.78;101046.87;1698869;84;21469;-85
2021/08/28 08:40:07;;;;;;;10.25;9.30;;;;;;;21.71;70.56;101052.42;1677028;84;20988;-85
2021/08/28 08:42:34;;;;;;;9.68;8.70;;;;;;;21.79;69.87;101058.56;1700774;83;20981;-85
2021/08/28 08:45:01;;;;;;;15.38;9.50;;;;;;;21.85;69.89;101058.45;1699260;84;21106;-85
2021/08/28 08:47:29;;;;;;;10.05;9.00;;;;;;;21.92;69.35;101054.76;1701830;84;21035;-85
2021/08/28 08:49:56;;;;;;;13.22;10.05;;;;;;;21.88;68.98;101043.64;1702565;84;20972;-85
2021/08/28 08:52:23;;;;;;;10.30;8.65;;;;;;;21.92;68.92;101057.87;1701460;83;21004;-86
2021/08/28 08:54:50;;;;;;;10.50;8.35;;;;;;;22.00;69.06;101053.28;1699466;83;21035;-85
2021/08/28 08:57:21;;;;;;;11.05;8.90;;;;;;;22.15;68.65;101032.02;1677798;84;21044;-86
2021/08/28 08:59:50;;;;;;;9.58;8.65;;;;;;;22.15;68.65;101032.02;1674070;84;21070;-86
2021/08/28 09:02:17;;;;;;;9.80;8.45;;;;;;;22.31;68.30;101059.45;1697639;84;21062;-86
2021/08/28 09:04:46;;;;;;;10.05;8.70;;;;;;;22.31;68.23;101063.47;1697529;83;21998;-85
2021/08/28 09:07:14;;;;;;;10.38;8.28;;;;;;;22.33;68.13;101056.28;1697576;82;21019;-86
2021/08/28 09:09:41;;;;;;;10.65;9.05;;;;;;;22.36;67.71;101048.66;1697427;83;21034;-86
2021/08/28 09:12:11;;;;;;;13.85;8.75;;;;;;;22.36;67.71;101048.66;1696909;84;21014;-86
2021/08/28 09:14:41;;;;;;;10.23;9.18;;;;;;;22.32;67.44;101055.41;1697351;82;21078;-86
2021/08/28 09:17:19;;;;;;;9.83;8.83;;;;;;;22.31;67.32;101054.97;1697563;84;21026;-86
2021/08/28 09:19:49;;;;;;;9.65;8.70;;;;;;;22.13;66.87;101033.38;1665270;84;21050;-86
2021/08/28 09:22:31;;;;;;;10.48;9.30;;;;;;;22.26;67.06;101051.51;1688840;84;21169;-86
2021/08/28 09:25:05;;;;;;;9.00;8.20;;;;;;;22.35;66.97;101054.45;1659094;84;22588;-85
2021/08/28 09:27:50;;;;;;;11.00;9.28;;;;;;;22.40;66.72;101049.89;1658800;86;21023;-86
2021/08/28 09:30:22;;;;;;;9.17;7.87;;;;;;;22.47;66.36;101047.98;1658661;84;21056;-86
2021/08/28 09:33:10;;;;;;;12.23;8.80;;;;;;;22.57;66.25;101046.00;1659067;86;21067;-85
2021/08/28 09:35:45;;;;;;;8.85;8.00;;;;;;;22.65;66.03;101032.84;1659141;86;21711;-86
2021/08/28 09:38:12;;;;;;;8.18;7.37;;;;;;;22.79;65.74;101034.38;1658998;84;21773;-85
2021/08/28 09:40:43;;;;;;;9.10;7.80;;;;;;;22.89;65.46;101030.09;1659142;86;21005;-85
2021/08/28 09:43:15;;;;;;;8.63;7.70;;;;;;;23.00;65.02;101035.70;1636607;84;21057;-85
2021/08/28 09:45:46;;;;;;;9.40;8.43;;;;;;;22.95;64.54;101027.73;1658825;84;21568;-85
2021/08/28 09:48:19;;;;;;;8.85;8.05;;;;;;;22.99;64.68;101021.84;1658600;84;20997;-86
2021/08/28 09:50:51;;;;;;;8.70;7.78;;;;;;;23.09;64.53;101018.97;1658782;84;22108;-86
2021/08/28 09:53:26;;;;;;;8.28;7.35;;;;;;;23.20;64.03;101019.16;1659030;86;21168;-86
2021/08/28 09:56:00;;;;;;;8.40;7.55;;;;;;;23.31;63.75;101015.77;1658920;84;21143;-86
2021/08/28 09:58:35;;;;;;;7.90;7.10;;;;;;;23.38;63.34;101013.83;1659031;86;21422;-86
2021/08/28 10:01:07;;;;;;;8.33;6.22;;;;;;;23.41;63.24;101015.98;1667236;84;21107;-86
2021/08/28 10:03:34;;;;;;;7.87;6.70;;;;;;;23.45;62.94;101017.67;1697670;84;21830;-86
2021/08/28 10:06:01;;;;;;;8.00;7.20;;;;;;;23.50;62.75;101018.92;1697670;84;21508;-86
2021/08/28 10:08:31;;;;;;;7.70;6.85;;;;;;;23.52;62.15;101021.11;1697425;84;21471;-86
2021/08/28 10:10:59;;;;;;;7.17;6.35;;;;;;;23.47;62.18;101020.33;1697662;84;21293;-86
2021/08/28 10:13:25;;;;;;;6.85;6.25;;;;;;;23.39;61.39;101019.64;1688947;83;21464;-86
2021/08/28 10:15:52;;;;;;;7.65;6.20;;;;;;;23.26;61.45;101017.70;1688880;83;22381;-86
2021/08/28 10:18:19;;;;;;;7.17;6.47;;;;;;;23.22;61.34;101018.70;1697471;82;21077;-86
2021/08/28 10:20:46;;;;;;;8.05;7.28;;;;;;;23.19;61.20;101022.31;1697562;82;21457;-86
2021/08/28 10:23:13;;;;;;;6.60;5.80;;;;;;;23.09;60.83;101025.68;1697159;83;21078;-86
2021/08/28 10:25:44;;;;;;;9.53;6.47;;;;;;;23.04;61.06;101028.91;1689020;83;21015;-86
2021/08/28 10:28:10;;;;;;;8.10;6.28;;;;;;;23.03;61.07;101028.51;1688655;84;21773;-86
2021/08/28 10:30:37;;;;;;;6.65;5.95;;;;;;;23.00;60.60;101027.66;1666116;84;21501;-86
2021/08/28 10:33:09;;;;;;;7.05;6.35;;;;;;;22.90;60.75;101028.33;1697659;84;21006;-86
2021/08/28 10:35:36;;;;;;;6.67;5.95;;;;;;;22.73;60.72;101008.99;1697209;84;21042;-86
2021/08/28 10:38:03;;;;;;;6.22;5.62;;;;;;;22.76;60.70;101015.65;1696864;83;21156;-86
2021/08/28 10:40:32;;;;;;;6.65;6.00;;;;;;;22.66;60.65;101014.50;1692116;83;22641;-86
2021/08/28 10:43:02;;;;;;;6.75;6.05;;;;;;;22.59;60.77;101024.05;1701528;84;21018;-86
2021/08/28 10:45:35;;;;;;;6.65;6.05;;;;;;;22.59;60.77;101024.05;1679617;84;21002;-86
2021/08/28 10:48:06;;;;;;;6.87;6.28;;;;;;;22.51;60.51;101029.58;1670254;84;20986;-85
2021/08/28 10:50:44;;;;;;;6.58;5.97;;;;;;;22.41;60.57;101031.56;1658588;84;21522;-87
2021/08/28 10:53:11;;;;;;;6.62;6.03;;;;;;;22.40;60.56;101032.46;1660469;86;22373;-86
2021/08/28 10:55:44;;;;;;;7.58;5.47;;;;;;;22.39;60.36;101033.82;1631934;87;21020;-87
2021/08/28 10:58:26;;;;;;;7.83;6.47;;;;;;;22.40;60.43;101032.92;1638362;86;21050;-87
2021/08/28 11:00:55;;;;;;;6.55;5.95;;;;;;;22.47;60.58;101031.89;1697751;82;21519;-87
2021/08/28 11:03:31;;;;;;;7.85;7.12;;;;;;;22.56;60.37;101033.48;1718217;82;21096;-87
2021/08/28 11:06:21;;;;;;;7.00;6.37;;;;;;;22.59;60.26;101030.75;1706722;82;21905;-88
2021/08/28 11:09:02;;;;;;;8.15;6.97;;;;;;;22.57;60.29;101026.75;1687955;81;21036;-87
2021/08/28 11:11:40;;;;;;;10.30;6.50;;;;;;;22.54;60.16;101032.17;1730333;83;21008;-87
2021/08/28 11:14:10;;;;;;;7.08;6.37;;;;;;;22.43;60.10;101030.16;1729841;82;21050;-87
2021/08/28 11:16:46;;;;;;;7.30;6.33;;;;;;;22.24;60.10;101035.88;1704200;82;21528;-87
2021/08/28 11:19:31;;;;;;;11.10;7.90;;;;;;;22.24;60.10;101051.96;1637253;85;21017;-87
2021/08/28 11:21:58;;;;;;;8.58;7.67;;;;;;;21.91;59.81;101008.75;1659963;84;21021;-87
2021/08/28 11:24:27;;;;;;;8.43;7.62;;;;;;;21.91;59.81;101008.75;1661018;84;21025;-88
2021/08/28 11:26:56;;;;;;;9.78;8.15;;;;;;;21.92;60.23;101033.75;1661053;86;21220;-87